createdAt,value
2022-08-02T00:00:33.584Z,98261.13
2022-08-02T00:03:00.214Z,98259.90
2022-08-02T00:05:27.175Z,98259.05
2022-08-02T00:07:53.717Z,98257.46
2022-08-02T00:10:20.435Z,98248.86
2022-08-02T00:12:47.180Z,98250.01
2022-08-02T00:15:16.029Z,98251.05
2022-08-02T00:17:44.081Z,98255.26
2022-08-02T00:20:11.404Z,98255.77
2022-08-02T00:22:38.153Z,98256.62
2022-08-02T00:25:05.523Z,98255.42
2022-08-02T00:27:32.053Z,98259.10
2022-08-02T00:29:58.700Z,98262.95
2022-08-02T00:32:25.339Z,98260.27
2022-08-02T00:34:52.774Z,98258.59
2022-08-02T00:37:19.757Z,98262.22
2022-08-02T00:39:46.409Z,98261.30
2022-08-02T00:42:15.245Z,98256.83
2022-08-02T00:44:42.451Z,98254.89
2022-08-02T00:47:09.339Z,98255.09
2022-08-02T00:49:35.963Z,98255.08
2022-08-02T00:52:03.405Z,98255.31
2022-08-02T00:54:30.161Z,98260.32
2022-08-02T00:56:56.676Z,98257.83
2022-08-02T00:59:23.259Z,98259.38
2022-08-02T01:01:55.766Z,98257.33
2022-08-02T01:04:30.010Z,98261.11
2022-08-02T01:06:59.881Z,98259.06
2022-08-02T01:09:26.708Z,98260.61
2022-08-02T01:11:53.458Z,98262.39
2022-08-02T01:14:21.836Z,98258.98
2022-08-02T01:17:06.887Z,98257.36
2022-08-02T01:19:58.132Z,98263.41
2022-08-02T01:23:01.560Z,98257.95
2022-08-02T01:25:57.158Z,98260.94
2022-08-02T01:28:42.544Z,98264.55
2022-08-02T01:31:34.583Z,98264.77
2022-08-02T01:34:06.143Z,98263.41
2022-08-02T01:36:43.026Z,98266.48
2022-08-02T01:39:26.895Z,98261.98
2022-08-02T01:42:01.411Z,98258.39
2022-08-02T01:44:31.879Z,98257.17
2022-08-02T01:47:04.820Z,98254.80
2022-08-02T01:49:34.308Z,98250.40
2022-08-02T01:52:03.113Z,98252.92
2022-08-02T01:54:32.995Z,98252.82
2022-08-02T01:57:03.999Z,98259.14
2022-08-02T01:59:31.249Z,98265.70
2022-08-02T02:01:59.643Z,98265.89
2022-08-02T02:04:29.299Z,98263.83
2022-08-02T02:06:57.519Z,98269.16
2022-08-02T02:09:28.683Z,98266.63
2022-08-02T02:12:11.941Z,98270.58
2022-08-02T02:14:42.767Z,98270.61
2022-08-02T02:17:53.092Z,98273.91
2022-08-02T02:20:08.762Z,98272.66
2022-08-02T02:22:35.439Z,98277.45
2022-08-02T02:25:02.189Z,98280.10
2022-08-02T02:27:34.444Z,98280.36
2022-08-02T02:30:06.449Z,98281.48
2022-08-02T02:32:35.024Z,98282.98
2022-08-02T02:35:03.490Z,98279.88
2022-08-02T02:37:32.590Z,98282.27
2022-08-02T02:39:59.949Z,98285.33
2022-08-02T02:42:31.275Z,98285.70
2022-08-02T02:45:00.327Z,98287.95
2022-08-02T02:47:40.595Z,98287.77
2022-08-02T02:50:09.182Z,98285.95
2022-08-02T02:52:38.533Z,98287.33
2022-08-02T02:55:06.828Z,98289.02
2022-08-02T02:57:34.115Z,98289.98
2022-08-02T03:00:02.064Z,98288.81
2022-08-02T03:02:29.120Z,98291.11
2022-08-02T03:04:58.267Z,98292.66
2022-08-02T03:07:26.530Z,98292.72
2022-08-02T03:09:54.355Z,98298.20
2022-08-02T03:12:28.830Z,98297.45
2022-08-02T03:15:02.478Z,98299.16
2022-08-02T03:17:55.899Z,98297.81
2022-08-02T03:20:22.662Z,98297.45
2022-08-02T03:22:49.882Z,98295.23
2022-08-02T03:25:17.960Z,98296.32
2022-08-02T03:27:44.970Z,98294.35
2022-08-02T03:30:13.407Z,98296.80
2022-08-02T03:32:42.800Z,98296.09
2022-08-02T03:35:12.068Z,98300.48
2022-08-02T03:37:40.257Z,98297.73
2022-08-02T03:40:08.878Z,98301.00
2022-08-02T03:42:36.002Z,98303.38
2022-08-02T03:45:08.407Z,98304.15
2022-08-02T03:47:38.320Z,98304.46
2022-08-02T03:50:07.591Z,98303.23
2022-08-02T03:52:34.658Z,98299.91
2022-08-02T03:55:01.539Z,98302.88
2022-08-02T03:57:28.677Z,98302.14
2022-08-02T03:59:55.426Z,98304.52
2022-08-02T04:02:22.171Z,98308.90
2022-08-02T04:04:48.797Z,98311.27
2022-08-02T04:07:15.400Z,98309.23
2022-08-02T04:10:02.065Z,98308.09
2022-08-02T04:12:28.603Z,98308.98
2022-08-02T04:14:55.346Z,98316.02
2022-08-02T04:17:23.844Z,98318.76
2022-08-02T04:19:54.978Z,98321.89
2022-08-02T04:22:29.409Z,98324.65
2022-08-02T04:25:02.044Z,98330.46
2022-08-02T04:27:50.316Z,98330.09
2022-08-02T04:30:18.183Z,98333.61
2022-08-02T04:32:45.869Z,98333.39
2022-08-02T04:35:20.855Z,98339.30
2022-08-02T04:38:08.837Z,98339.61
2022-08-02T04:40:36.354Z,98341.87
2022-08-02T04:43:03.399Z,98340.59
2022-08-02T04:45:30.986Z,98340.81
2022-08-02T04:48:05.793Z,98343.44
2022-08-02T04:50:33.863Z,98347.46
2022-08-02T04:53:01.102Z,98345.20
2022-08-02T04:55:28.414Z,98344.73
2022-08-02T04:57:55.617Z,98344.98
2022-08-02T05:00:22.637Z,98348.43
2022-08-02T05:02:50.320Z,98348.34
2022-08-02T05:05:17.179Z,98354.34
2022-08-02T05:07:44.023Z,98355.36
2022-08-02T05:10:11.320Z,98356.16
2022-08-02T05:12:39.264Z,98362.98
2022-08-02T05:15:06.745Z,98364.60
2022-08-02T05:17:36.023Z,98363.59
2022-08-02T05:20:02.765Z,98366.61
2022-08-02T05:22:29.599Z,98370.26
2022-08-02T05:24:56.118Z,98367.00
2022-08-02T05:27:22.786Z,98370.02
2022-08-02T05:29:51.109Z,98371.83
2022-08-02T05:32:20.383Z,98377.35
2022-08-02T05:34:50.625Z,98375.66
2022-08-02T05:37:17.622Z,98370.98
2022-08-02T05:39:55.332Z,98371.02
2022-08-02T05:42:23.699Z,98374.35
2022-08-02T05:44:50.705Z,98378.26
2022-08-02T05:47:17.640Z,98380.33
2022-08-02T05:49:44.384Z,98380.66
2022-08-02T05:52:15.428Z,98384.80
2022-08-02T05:54:48.318Z,98383.39
2022-08-02T05:57:43.425Z,98385.41
2022-08-02T06:00:13.308Z,98386.77
2022-08-02T06:03:04.554Z,98391.21
2022-08-02T06:05:41.161Z,98395.69
2022-08-02T06:08:08.681Z,98397.00
2022-08-02T06:10:38.275Z,98399.20
2022-08-02T06:13:14.333Z,98397.95
2022-08-02T06:15:52.963Z,98398.14
2022-08-02T06:18:28.215Z,98403.90
2022-08-02T06:20:58.630Z,98408.30
2022-08-02T06:23:32.487Z,98408.20
2022-08-02T06:26:03.842Z,98403.20
2022-08-02T06:28:31.303Z,98407.52
2022-08-02T06:30:59.101Z,98413.55
2022-08-02T06:33:25.718Z,98414.94
2022-08-02T06:36:22.268Z,98413.55
2022-08-02T06:39:01.710Z,98418.99
2022-08-02T06:41:31.219Z,98419.09
2022-08-02T06:44:27.390Z,98425.09
2022-08-02T06:47:10.853Z,98426.37
2022-08-02T06:49:52.406Z,98425.92
2022-08-02T06:52:30.557Z,98431.48
2022-08-02T06:54:58.959Z,98433.36
2022-08-02T06:57:26.008Z,98433.86
2022-08-02T06:59:52.785Z,98433.58
2022-08-02T07:02:19.634Z,98432.58
2022-08-02T07:04:47.354Z,98430.05
2022-08-02T07:07:13.967Z,98430.92
2022-08-02T07:09:57.071Z,98430.15
2022-08-02T07:12:27.732Z,98431.67
2022-08-02T07:14:54.354Z,98427.91
2022-08-02T07:17:21.105Z,98430.76
2022-08-02T07:19:47.846Z,98436.95
2022-08-02T07:22:15.036Z,98429.61
2022-08-02T07:24:41.769Z,98428.88
2022-08-02T07:27:11.624Z,98429.01
2022-08-02T07:29:45.987Z,98430.39
2022-08-02T07:32:25.354Z,98433.77
2022-08-02T07:34:55.084Z,98432.65
2022-08-02T07:37:35.305Z,98434.67
2022-08-02T07:40:15.096Z,98432.73
2022-08-02T07:42:47.014Z,98431.17
2022-08-02T07:45:14.704Z,98432.07
2022-08-02T07:47:43.587Z,98437.98
2022-08-02T07:50:11.854Z,98433.48
2022-08-02T07:52:39.312Z,98430.48
2022-08-02T07:55:06.365Z,98429.44
2022-08-02T07:57:33.010Z,98426.34
2022-08-02T08:00:00.390Z,98426.59
2022-08-02T08:02:27.009Z,98425.89
2022-08-02T08:04:53.635Z,98430.41
2022-08-02T08:07:20.811Z,98425.45
2022-08-02T08:09:47.414Z,98424.77
2022-08-02T08:12:14.634Z,98425.09
2022-08-02T08:14:42.378Z,98428.77
2022-08-02T08:17:09.181Z,98432.29
2022-08-02T08:19:51.349Z,98435.52
2022-08-02T08:22:18.775Z,98434.54
2022-08-02T08:24:45.462Z,98434.92
2022-08-02T08:27:11.964Z,98436.79
2022-08-02T08:29:38.644Z,98436.20
2022-08-02T08:32:05.872Z,98437.09
2022-08-02T08:34:32.439Z,98439.23
2022-08-02T08:36:59.349Z,98436.80
2022-08-02T08:39:26.351Z,98437.77
2022-08-02T08:41:53.080Z,98437.90
2022-08-02T08:44:19.824Z,98440.80
2022-08-02T08:46:49.290Z,98442.16
2022-08-02T08:49:21.988Z,98443.01
2022-08-02T08:51:51.332Z,98440.48
2022-08-02T08:54:19.171Z,98443.75
2022-08-02T08:56:46.543Z,98445.19
2022-08-02T08:59:13.276Z,98442.85
2022-08-02T09:01:50.009Z,98444.25
2022-08-02T09:04:19.279Z,98440.45
2022-08-02T09:06:45.830Z,98438.45
2022-08-02T09:09:12.497Z,98441.33
2022-08-02T09:11:39.144Z,98441.17
2022-08-02T09:14:06.445Z,98441.38
2022-08-02T09:16:37.901Z,98442.13
2022-08-02T09:19:24.825Z,98441.46
2022-08-02T09:22:02.225Z,98437.64
2022-08-02T09:24:31.760Z,98431.98
2022-08-02T09:26:58.551Z,98432.70
2022-08-02T09:29:26.356Z,98434.27
2022-08-02T09:32:03.069Z,98436.31
2022-08-02T09:34:51.500Z,98437.88
2022-08-02T09:37:29.196Z,98441.84
2022-08-02T09:39:59.841Z,98440.81
2022-08-02T09:42:30.729Z,98440.52
2022-08-02T09:45:02.369Z,98431.88
2022-08-02T09:47:31.075Z,98437.05
2022-08-02T09:49:58.853Z,98434.52
2022-08-02T09:52:37.038Z,98439.52
2022-08-02T09:55:11.773Z,98430.24
2022-08-02T09:57:38.861Z,98425.80
2022-08-02T10:00:16.175Z,98424.23
2022-08-02T10:03:19.338Z,98424.36
2022-08-02T10:05:55.885Z,98427.20
2022-08-02T10:08:25.464Z,98420.95
2022-08-02T10:10:52.320Z,98423.89
2022-08-02T10:13:20.173Z,98416.44
2022-08-02T10:15:50.474Z,98417.16
2022-08-02T10:18:37.118Z,98420.37
2022-08-02T10:21:19.576Z,98409.66
2022-08-02T10:23:48.970Z,98405.52
2022-08-02T10:26:19.185Z,98400.74
2022-08-02T10:28:50.158Z,98399.48
2022-08-02T10:31:23.019Z,98398.08
2022-08-02T10:33:52.848Z,98398.13
2022-08-02T10:36:21.362Z,98403.45
2022-08-02T10:38:48.100Z,98396.21
2022-08-02T10:41:14.837Z,98395.61
2022-08-02T10:43:44.214Z,98396.10
2022-08-02T10:46:33.731Z,98394.83
2022-08-02T10:52:01.937Z,98390.08
2022-08-02T10:54:32.340Z,98387.85
2022-08-02T10:57:01.350Z,98389.73
2022-08-02T10:59:28.297Z,98391.11
2022-08-02T11:02:00.877Z,98389.63
2022-08-02T11:04:36.662Z,98391.23
2022-08-02T11:07:20.654Z,98388.23
2022-08-02T11:09:50.020Z,98393.23
2022-08-02T11:12:19.171Z,98394.17
2022-08-02T11:14:58.530Z,98392.98
2022-08-02T11:17:25.476Z,98390.70
2022-08-02T11:20:10.888Z,98390.49
2022-08-02T11:22:42.062Z,98386.57
2022-08-02T11:25:24.250Z,98384.95
2022-08-02T11:28:08.726Z,98384.97
2022-08-02T11:30:36.241Z,98376.83
2022-08-02T11:33:03.806Z,98371.73
2022-08-02T11:35:39.814Z,98373.79
2022-08-02T11:38:18.076Z,98378.06
2022-08-02T11:40:46.205Z,98372.80
2022-08-02T11:43:24.892Z,98373.21
2022-08-02T11:45:52.077Z,98383.54
2022-08-02T11:48:38.617Z,98388.61
2022-08-02T11:51:06.553Z,98385.89
2022-08-02T11:53:51.615Z,98378.39
2022-08-02T11:56:32.801Z,98380.66
2022-08-02T11:59:08.863Z,98386.65
2022-08-02T12:01:45.212Z,98378.90
2022-08-02T12:04:17.281Z,98381.23
2022-08-02T12:06:44.890Z,98387.98
2022-08-02T12:09:18.811Z,98383.58
2022-08-02T12:11:49.240Z,98381.30
2022-08-02T12:14:15.960Z,98382.66
2022-08-02T12:16:42.707Z,98379.45
2022-08-02T12:19:09.354Z,98385.29
2022-08-02T12:21:36.097Z,98386.84
2022-08-02T12:24:02.809Z,98385.23
2022-08-02T12:26:30.607Z,98380.89
2022-08-02T12:29:00.878Z,98380.27
2022-08-02T12:31:57.542Z,98374.99
2022-08-02T12:34:31.501Z,98372.25
2022-08-02T12:37:06.367Z,98375.73
2022-08-02T12:39:42.486Z,98381.19
2022-08-02T12:42:12.469Z,98383.80
2022-08-02T12:44:51.317Z,98389.74
2022-08-02T12:47:18.201Z,98389.57
2022-08-02T12:50:12.431Z,98392.03
2022-08-02T12:52:39.657Z,98392.59
2022-08-02T12:55:25.226Z,98388.74
2022-08-02T12:57:55.000Z,98390.42
2022-08-02T13:00:40.340Z,98393.48
2022-08-02T13:04:07.400Z,98389.73
2022-08-02T13:05:57.317Z,98390.89
2022-08-02T13:08:25.048Z,98390.81
2022-08-02T13:10:51.550Z,98394.11
2022-08-02T13:13:18.265Z,98395.01
2022-08-02T13:15:48.858Z,98391.91
2022-08-02T13:18:17.897Z,98390.04
2022-08-02T13:20:45.771Z,98388.44
2022-08-02T13:23:21.139Z,98386.73
2022-08-02T13:25:52.858Z,98383.45
2022-08-02T13:28:19.813Z,98385.58
2022-08-02T13:30:46.966Z,98381.15
2022-08-02T13:33:14.396Z,98379.58
2022-08-02T13:35:42.104Z,98385.72
2022-08-02T13:38:08.740Z,98381.00
2022-08-02T13:41:02.076Z,98381.10
2022-08-02T13:43:22.404Z,98384.77
2022-08-02T13:45:49.503Z,98390.71
2022-08-02T13:48:16.948Z,98382.21
2022-08-02T13:50:45.110Z,98382.55
2022-08-02T13:53:11.860Z,98380.78
2022-08-02T13:55:38.508Z,98376.03
2022-08-02T13:58:10.677Z,98378.77
2022-08-02T14:00:37.416Z,98383.63
2022-08-02T14:03:05.551Z,98384.02
2022-08-02T14:05:46.904Z,98384.89
2022-08-02T14:08:19.499Z,98380.39
2022-08-02T14:10:50.035Z,98374.92
2022-08-02T14:13:18.079Z,98377.02
2022-08-02T14:15:45.132Z,98379.67
2022-08-02T14:18:12.425Z,98379.30
2022-08-02T14:20:39.038Z,98381.70
2022-08-02T14:23:05.661Z,98376.94
2022-08-02T14:25:32.656Z,98374.42
2022-08-02T14:27:59.212Z,98377.53
2022-08-02T14:30:25.762Z,98370.41
2022-08-02T14:32:52.464Z,98383.78
2022-08-02T14:35:19.311Z,98384.05
2022-08-02T14:37:45.897Z,98382.08
2022-08-02T14:40:31.171Z,98382.14
2022-08-02T14:43:02.274Z,98385.60
2022-08-02T14:45:36.608Z,98380.79
2022-08-02T14:48:08.888Z,98378.77
2022-08-02T14:50:35.455Z,98378.52
2022-08-02T14:53:01.964Z,98380.92
2022-08-02T14:55:28.469Z,98386.26
2022-08-02T14:57:55.053Z,98389.10
2022-08-02T15:00:21.743Z,98390.61
2022-08-02T15:02:48.446Z,98391.11
2022-08-02T15:05:15.032Z,98384.33
2022-08-02T15:07:45.321Z,98393.56
2022-08-02T15:10:14.449Z,98397.13
2022-08-02T15:12:41.012Z,98393.49
2022-08-02T15:15:08.176Z,98389.75
2022-08-02T15:17:34.854Z,98388.73
2022-08-02T15:20:09.394Z,98392.83
2022-08-02T15:22:49.467Z,98386.64
2022-08-02T15:25:16.424Z,98389.13
2022-08-02T15:27:43.037Z,98389.86
2022-08-02T15:30:10.076Z,98384.20
2022-08-02T15:32:36.943Z,98382.29
2022-08-02T15:35:03.989Z,98378.90
2022-08-02T15:37:31.303Z,98384.06
2022-08-02T15:39:59.430Z,98387.16
2022-08-02T15:42:30.851Z,98389.21
2022-08-02T15:44:58.207Z,98385.82
2022-08-02T15:47:24.760Z,98385.55
2022-08-02T15:49:51.555Z,98381.25
2022-08-02T15:52:18.217Z,98379.16
2022-08-02T15:54:44.924Z,98378.87
2022-08-02T15:57:11.569Z,98385.45
2022-08-02T15:59:38.308Z,98388.73
2022-08-02T16:02:04.996Z,98388.02
2022-08-02T16:04:32.311Z,98387.27
2022-08-02T16:07:01.490Z,98393.14
2022-08-02T16:09:28.771Z,98393.77
2022-08-02T16:11:55.313Z,98394.95
2022-08-02T16:14:21.962Z,98388.40
2022-08-02T16:16:48.593Z,98388.62
2022-08-02T16:19:37.549Z,98392.02
2022-08-02T16:22:02.262Z,98389.71
2022-08-02T16:24:28.872Z,98391.00
2022-08-02T16:26:55.492Z,98391.20
2022-08-02T16:29:22.196Z,98388.61
2022-08-02T16:31:49.144Z,98390.48
2022-08-02T16:34:17.354Z,98392.84
2022-08-02T16:36:44.876Z,98394.67
2022-08-02T16:39:11.816Z,98395.92
2022-08-02T16:41:51.124Z,98400.88
2022-08-02T16:44:29.196Z,98398.61
2022-08-02T16:47:12.304Z,98400.53
2022-08-02T16:50:07.507Z,98400.80
2022-08-02T16:52:27.413Z,98407.49
2022-08-02T16:54:54.063Z,98415.16
2022-08-02T16:57:20.989Z,98419.52
2022-08-02T16:59:57.973Z,98415.75
2022-08-02T17:02:27.988Z,98416.52
2022-08-02T17:04:55.453Z,98415.84
2022-08-02T17:08:10.475Z,98422.13
2022-08-02T17:10:10.105Z,98427.77
2022-08-02T17:12:37.959Z,98433.73
2022-08-02T17:16:08.385Z,98434.31
2022-08-02T17:17:52.539Z,98434.45
2022-08-02T17:20:20.080Z,98435.11
2022-08-02T17:22:47.561Z,98434.55
2022-08-02T17:25:16.515Z,98432.02
2022-08-02T17:27:44.280Z,98431.82
2022-08-02T17:30:12.595Z,98433.07
2022-08-02T17:32:39.847Z,98435.36
2022-08-02T17:35:12.918Z,98437.76
2022-08-02T17:37:42.454Z,98444.32
2022-08-02T17:40:09.910Z,98444.67
2022-08-02T17:42:36.765Z,98444.52
2022-08-02T17:45:16.298Z,98440.56
2022-08-02T17:47:43.579Z,98439.48
2022-08-02T17:50:30.333Z,98440.23
2022-08-02T17:52:57.163Z,98443.81
2022-08-02T17:55:24.017Z,98445.30
2022-08-02T17:57:57.694Z,98450.25
2022-08-02T18:00:33.840Z,98453.55
2022-08-02T18:03:01.647Z,98453.48
2022-08-02T18:05:40.449Z,98452.64
2022-08-02T18:08:21.549Z,98453.91
2022-08-02T18:10:49.831Z,98456.00
2022-08-02T18:13:16.360Z,98455.80
2022-08-02T18:15:45.716Z,98463.13
2022-08-02T18:18:14.377Z,98460.16
2022-08-02T18:20:41.732Z,98458.66
2022-08-02T18:23:13.463Z,98461.48
2022-08-02T18:25:45.643Z,98462.70
2022-08-02T18:28:14.828Z,98466.73
2022-08-02T18:30:42.141Z,98466.65
2022-08-02T18:33:57.587Z,98470.83
2022-08-02T18:35:56.015Z,98473.67
2022-08-02T18:38:24.057Z,98477.05
2022-08-02T18:40:51.412Z,98476.81
2022-08-02T18:43:19.864Z,98480.91
2022-08-02T18:46:05.287Z,98481.09
2022-08-02T18:48:38.458Z,98486.85
2022-08-02T18:51:06.354Z,98489.27
2022-08-02T18:53:41.789Z,98491.51
2022-08-02T18:56:19.337Z,98501.69
2022-08-02T18:58:48.323Z,98503.55
2022-08-02T19:01:31.341Z,98502.61
2022-08-02T19:04:00.255Z,98505.44
2022-08-02T19:06:28.850Z,98506.05
2022-08-02T19:09:04.891Z,98509.29
2022-08-02T19:11:35.188Z,98507.00
2022-08-02T19:14:02.529Z,98507.55
2022-08-02T19:16:37.812Z,98509.20
2022-08-02T19:19:07.771Z,98511.15
2022-08-02T19:22:16.318Z,98513.21
2022-08-02T19:24:21.329Z,98516.43
2022-08-02T19:26:52.095Z,98515.86
2022-08-02T19:29:42.361Z,98512.98
2022-08-02T19:32:41.617Z,98517.04
2022-08-02T19:34:55.541Z,98511.24
2022-08-02T19:37:22.157Z,98514.58
2022-08-02T19:39:48.799Z,98516.74
2022-08-02T19:42:17.170Z,98521.92
2022-08-02T19:44:45.868Z,98527.04
2022-08-02T19:47:19.334Z,98528.21
2022-08-02T19:49:48.825Z,98526.77
2022-08-02T19:52:21.066Z,98524.78
2022-08-02T19:54:55.652Z,98524.80
2022-08-02T19:57:24.945Z,98529.06
2022-08-02T19:59:53.907Z,98529.92
2022-08-02T20:02:21.255Z,98533.85
2022-08-02T20:04:50.358Z,98534.05
2022-08-02T20:07:50.011Z,98533.15
2022-08-02T20:10:11.270Z,98536.20
2022-08-02T20:12:41.859Z,98535.44
2022-08-02T20:15:15.111Z,98535.63
2022-08-02T20:17:58.676Z,98536.19
2022-08-02T20:20:30.561Z,98540.80
2022-08-02T20:22:57.419Z,98538.27
2022-08-02T20:25:24.750Z,98542.16
2022-08-02T20:27:56.307Z,98539.80
2022-08-02T20:30:25.331Z,98540.79
2022-08-02T20:32:53.890Z,98541.81
2022-08-02T20:35:27.493Z,98539.27
2022-08-02T20:38:00.577Z,98540.77
2022-08-02T20:40:29.302Z,98541.92
2022-08-02T20:42:56.326Z,98540.76
2022-08-02T20:45:23.920Z,98542.59
2022-08-02T20:47:54.755Z,98540.80
2022-08-02T20:50:31.232Z,98540.29
2022-08-02T20:53:00.473Z,98536.77
2022-08-02T20:55:30.796Z,98532.34
2022-08-02T20:58:00.891Z,98532.86
2022-08-02T21:00:47.107Z,98533.06
2022-08-02T21:03:15.886Z,98537.99
2022-08-02T21:05:55.922Z,98537.80
2022-08-02T21:08:23.330Z,98535.26
2022-08-02T21:10:52.741Z,98539.41
2022-08-02T21:13:22.567Z,98536.33
2022-08-02T21:15:51.378Z,98538.02
2022-08-02T21:18:28.734Z,98543.21
2022-08-02T21:21:05.711Z,98538.48
2022-08-02T21:23:36.370Z,98538.94
2022-08-02T21:26:04.057Z,98537.43
2022-08-02T21:28:34.952Z,98539.23
2022-08-02T21:31:12.410Z,98541.27
2022-08-02T21:33:56.949Z,98543.83
2022-08-02T21:36:30.652Z,98543.77
2022-08-02T21:38:59.969Z,98546.10
2022-08-02T21:41:40.018Z,98542.75
2022-08-02T21:44:15.980Z,98542.21
2022-08-02T21:46:51.130Z,98543.18
2022-08-02T21:49:20.563Z,98542.53
2022-08-02T21:51:49.662Z,98542.75
2022-08-02T21:54:21.329Z,98543.27
2022-08-02T21:56:52.729Z,98544.69
2022-08-02T21:59:25.934Z,98546.87
2022-08-02T22:01:56.689Z,98547.11
2022-08-02T22:04:24.446Z,98548.20
2022-08-02T22:06:51.253Z,98550.29
2022-08-02T22:09:44.351Z,98552.70
2022-08-02T22:12:10.107Z,98553.56
2022-08-02T22:14:39.696Z,98553.20
2022-08-02T22:17:08.653Z,98556.99
2022-08-02T22:19:36.218Z,98558.81
2022-08-02T22:22:02.878Z,98558.41
2022-08-02T22:24:29.756Z,98558.98
2022-08-02T22:26:57.913Z,98557.90
2022-08-02T22:29:25.079Z,98555.92
2022-08-02T22:31:52.552Z,98559.58
2022-08-02T22:34:37.182Z,98560.20
2022-08-02T22:37:07.536Z,98558.24
2022-08-02T22:39:34.545Z,98559.30
2022-08-02T22:42:07.023Z,98559.15
2022-08-02T22:44:35.651Z,98561.20
2022-08-02T22:47:06.938Z,98563.80
2022-08-02T22:49:38.595Z,98559.59
2022-08-02T22:52:20.339Z,98565.41
2022-08-02T22:54:47.784Z,98566.35
2022-08-02T22:57:14.451Z,98563.68
2022-08-02T22:59:41.448Z,98562.95
2022-08-02T23:02:10.143Z,98562.01
2022-08-02T23:04:37.762Z,98563.23
2022-08-02T23:07:05.133Z,98563.91
2022-08-02T23:09:35.366Z,98563.70
2022-08-02T23:12:02.110Z,98566.95
2022-08-02T23:14:28.864Z,98572.05
2022-08-02T23:16:55.394Z,98569.84
2022-08-02T23:19:22.044Z,98572.42
2022-08-02T23:22:02.778Z,98564.62
2022-08-02T23:24:31.410Z,98559.96
2022-08-02T23:26:57.976Z,98564.96
2022-08-02T23:29:24.663Z,98568.29
2022-08-02T23:31:51.182Z,98568.21
2022-08-02T23:34:19.548Z,98564.29
2022-08-02T23:36:46.121Z,98562.27
2022-08-02T23:39:12.954Z,98567.05
2022-08-02T23:41:39.548Z,98567.93
2022-08-02T23:44:14.838Z,98565.13
2022-08-02T23:46:46.989Z,98559.34
2022-08-02T23:49:14.634Z,98559.59
2022-08-02T23:51:41.343Z,98560.95
2022-08-02T23:54:08.411Z,98564.33
2022-08-02T23:56:35.244Z,98557.66
2022-08-02T23:59:01.800Z,98559.08
